sensor_id;sensor_type;location;lat;lon;timestamp;pressure;altitude;pressure_sealevel;temperature;humidity
28167;BME280;15455;53.376;-6.262;2022-07-05T00:01:47;102085.88;;;12.69;100.00
28167;BME280;15455;53.376;-6.262;2022-07-05T00:04:33;102084.09;;;12.66;100.00
28167;BME280;15455;53.376;-6.262;2022-07-05T00:07:18;102084.97;;;12.64;100.00
28167;BME280;15455;53.376;-6.262;2022-07-05T00:10:04;102091.03;;;12.61;100.00
28167;BME280;15455;53.376;-6.262;2022-07-05T00:12:50;102092.75;;;12.61;100.00
28167;BME280;15455;53.376;-6.262;2022-07-05T00:15:35;102083.13;;;12.57;100.00
28167;BME280;15455;53.376;-6.262;2022-07-05T00:18:21;102083.13;;;12.57;100.00
28167;BME280;15455;53.376;-6.262;2022-07-05T00:21:06;102092.69;;;12.55;100.00
28167;BME280;15455;53.376;-6.262;2022-07-05T00:23:52;102088.38;;;12.55;100.00
28167;BME280;15455;53.376;-6.262;2022-07-05T00:26:38;102097.94;;;12.56;100.00
28167;BME280;15455;53.376;-6.262;2022-07-05T00:29:24;102093.63;;;12.57;100.00
28167;BME280;15455;53.376;-6.262;2022-07-05T00:32:13;102087.47;;;12.55;100.00
28167;BME280;15455;53.376;-6.262;2022-07-05T00:34:58;102094.44;;;12.53;100.00
28167;BME280;15455;53.376;-6.262;2022-07-05T00:37:44;102103.16;;;12.51;100.00
28167;BME280;15455;53.376;-6.262;2022-07-05T00:40:30;102091.81;;;12.53;100.00
28167;BME280;15455;53.376;-6.262;2022-07-05T00:43:15;102092.72;;;12.56;100.00
28167;BME280;15455;53.376;-6.262;2022-07-05T00:46:01;102095.31;;;12.55;100.00
28167;BME280;15455;53.376;-6.262;2022-07-05T00:48:47;102090.94;;;12.54;100.00
28167;BME280;15455;53.376;-6.262;2022-07-05T00:51:36;102086.59;;;12.53;100.00
28167;BME280;15455;53.376;-6.262;2022-07-05T00:54:42;102080.44;;;12.50;100.00
28167;BME280;15455;53.376;-6.262;2022-07-05T00:57:29;102084.81;;;12.51;100.00
28167;BME280;15455;53.376;-6.262;2022-07-05T01:00:15;102079.56;;;12.50;100.00
28167;BME280;15455;53.376;-6.262;2022-07-05T01:03:01;102083.03;;;12.50;100.00
28167;BME280;15455;53.376;-6.262;2022-07-05T01:05:47;102087.41;;;12.48;100.00
28167;BME280;15455;53.376;-6.262;2022-07-05T01:08:35;102086.50;;;12.46;100.00
28167;BME280;15455;53.376;-6.262;2022-07-05T01:11:22;102082.13;;;12.44;100.00
28167;BME280;15455;53.376;-6.262;2022-07-05T01:14:08;102088.22;;;12.43;100.00
28167;BME280;15455;53.376;-6.262;2022-07-05T01:16:56;102080.34;;;12.43;100.00
28167;BME280;15455;53.376;-6.262;2022-07-05T01:19:42;102083.84;;;12.43;100.00
28167;BME280;15455;53.376;-6.262;2022-07-05T01:22:51;102082.97;;;12.43;100.00
28167;BME280;15455;53.376;-6.262;2022-07-05T01:25:40;102077.72;;;12.41;100.00
28167;BME280;15455;53.376;-6.262;2022-07-05T01:28:26;102084.63;;;12.36;100.00
28167;BME280;15455;53.376;-6.262;2022-07-05T01:31:11;102091.53;;;12.26;100.00
28167;BME280;15455;53.376;-6.262;2022-07-05T01:33:56;102092.34;;;12.22;100.00
28167;BME280;15455;53.376;-6.262;2022-07-05T01:36:42;102086.13;;;12.14;100.00
28167;BME280;15455;53.376;-6.262;2022-07-05T01:39:28;102091.25;;;12.06;100.00
28167;BME280;15455;53.376;-6.262;2022-07-05T01:42:13;102092.91;;;11.99;100.00
28167;BME280;15455;53.376;-6.262;2022-07-05T01:44:59;102087.59;;;11.93;100.00
28167;BME280;15455;53.376;-6.262;2022-07-05T01:47:45;102095.38;;;11.89;100.00
28167;BME280;15455;53.376;-6.262;2022-07-05T01:50:34;102101.44;;;11.88;100.00
28167;BME280;15455;53.376;-6.262;2022-07-05T01:53:23;102091.81;;;11.85;100.00
28167;BME280;15455;53.376;-6.262;2022-07-05T01:56:09;102093.56;;;11.86;100.00
28167;BME280;15455;53.376;-6.262;2022-07-05T01:58:55;102096.19;;;11.85;100.00
28167;BME280;15455;53.376;-6.262;2022-07-05T02:01:41;102094.44;;;11.87;100.00
28167;BME280;15455;53.376;-6.262;2022-07-05T02:04:28;102087.44;;;11.86;100.00
28167;BME280;15455;53.376;-6.262;2022-07-05T02:07:15;102092.69;;;11.86;100.00
28167;BME280;15455;53.376;-6.262;2022-07-05T02:10:02;102079.59;;;11.86;100.00
28167;BME280;15455;53.376;-6.262;2022-07-05T02:12:48;102077.88;;;11.86;100.00
28167;BME280;15455;53.376;-6.262;2022-07-05T02:15:35;102085.75;;;11.89;100.00
28167;BME280;15455;53.376;-6.262;2022-07-05T02:18:21;102083.16;;;11.89;100.00
28167;BME280;15455;53.376;-6.262;2022-07-05T02:21:08;102090.16;;;11.90;100.00
28167;BME280;15455;53.376;-6.262;2022-07-05T02:23:54;102085.78;;;11.91;100.00
28167;BME280;15455;53.376;-6.262;2022-07-05T02:26:43;102079.69;;;11.90;100.00
28167;BME280;15455;53.376;-6.262;2022-07-05T02:29:29;102081.41;;;11.91;100.00
28167;BME280;15455;53.376;-6.262;2022-07-05T02:32:17;102082.38;;;11.93;100.00
28167;BME280;15455;53.376;-6.262;2022-07-05T02:35:03;102078.81;;;11.93;100.00
28167;BME280;15455;53.376;-6.262;2022-07-05T02:37:50;102081.44;;;11.93;100.00
28167;BME280;15455;53.376;-6.262;2022-07-05T02:40:36;102081.50;;;11.94;100.00
28167;BME280;15455;53.376;-6.262;2022-07-05T02:43:23;102081.53;;;11.96;100.00
28167;BME280;15455;53.376;-6.262;2022-07-05T02:46:09;102077.13;;;11.93;100.00
28167;BME280;15455;53.376;-6.262;2022-07-05T02:48:56;102070.09;;;11.92;100.00
28167;BME280;15455;53.376;-6.262;2022-07-05T02:51:48;102074.53;;;11.93;100.00
28167;BME280;15455;53.376;-6.262;2022-07-05T02:54:33;102076.25;;;11.94;100.00
28167;BME280;15455;53.376;-6.262;2022-07-05T02:57:22;102083.25;;;11.94;100.00
28167;BME280;15455;53.376;-6.262;2022-07-05T03:00:08;102083.19;;;11.92;100.00
28167;BME280;15455;53.376;-6.262;2022-07-05T03:02:58;102081.44;;;11.93;100.00
28167;BME280;15455;53.376;-6.262;2022-07-05T03:05:46;102083.25;;;11.94;100.00
28167;BME280;15455;53.376;-6.262;2022-07-05T03:08:31;102083.25;;;11.94;100.00
28167;BME280;15455;53.376;-6.262;2022-07-05T03:11:17;102080.63;;;11.95;100.00
28167;BME280;15455;53.376;-6.262;2022-07-05T03:14:03;102079.78;;;11.95;100.00
28167;BME280;15455;53.376;-6.262;2022-07-05T03:16:49;102085.00;;;11.95;100.00
28167;BME280;15455;53.376;-6.262;2022-07-05T03:19:35;102092.00;;;11.96;100.00
28167;BME280;15455;53.376;-6.262;2022-07-05T03:22:23;102088.47;;;11.94;100.00
28167;BME280;15455;53.376;-6.262;2022-07-05T03:25:09;102095.44;;;11.93;100.00
28167;BME280;15455;53.376;-6.262;2022-07-05T03:27:55;102099.75;;;11.93;100.00
28167;BME280;15455;53.376;-6.262;2022-07-05T03:30:41;102097.13;;;11.91;100.00
28167;BME280;15455;53.376;-6.262;2022-07-05T03:33:28;102089.22;;;11.87;100.00
28167;BME280;15455;53.376;-6.262;2022-07-05T03:36:17;102097.94;;;11.87;100.00
28167;BME280;15455;53.376;-6.262;2022-07-05T03:39:03;102101.38;;;11.83;100.00
28167;BME280;15455;53.376;-6.262;2022-07-05T03:41:51;102102.25;;;11.84;100.00
28167;BME280;15455;53.376;-6.262;2022-07-05T03:44:39;102106.63;;;11.83;100.00
28167;BME280;15455;53.376;-6.262;2022-07-05T03:47:25;102106.63;;;11.85;100.00
28167;BME280;15455;53.376;-6.262;2022-07-05T03:50:11;102115.34;;;11.85;100.00
28167;BME280;15455;53.376;-6.262;2022-07-05T03:52:58;102115.34;;;11.84;100.00
28167;BME280;15455;53.376;-6.262;2022-07-05T03:55:45;102117.97;;;11.85;100.00
28167;BME280;15455;53.376;-6.262;2022-07-05T03:58:32;102127.56;;;11.85;100.00
28167;BME280;15455;53.376;-6.262;2022-07-05T04:01:18;102125.78;;;11.84;100.00
28167;BME280;15455;53.376;-6.262;2022-07-05T04:04:05;102126.69;;;11.86;100.00
28167;BME280;15455;53.376;-6.262;2022-07-05T04:06:50;102131.03;;;11.85;100.00
28167;BME280;15455;53.376;-6.262;2022-07-05T04:09:36;102132.00;;;11.89;100.00
28167;BME280;15455;53.376;-6.262;2022-07-05T04:12:23;102129.38;;;11.90;100.00
28167;BME280;15455;53.376;-6.262;2022-07-05T04:15:09;102134.66;;;11.92;100.00
28167;BME280;15455;53.376;-6.262;2022-07-05T04:17:56;102138.09;;;11.91;100.00
28167;BME280;15455;53.376;-6.262;2022-07-05T04:20:45;102138.09;;;11.91;100.00
28167;BME280;15455;53.376;-6.262;2022-07-05T04:23:32;102140.75;;;11.92;100.00
28167;BME280;15455;53.376;-6.262;2022-07-05T04:26:19;102147.72;;;11.92;100.00
28167;BME280;15455;53.376;-6.262;2022-07-05T04:29:05;102144.28;;;11.94;100.00
28167;BME280;15455;53.376;-6.262;2022-07-05T04:31:54;102142.59;;;11.96;100.00
28167;BME280;15455;53.376;-6.262;2022-07-05T04:34:40;102141.75;;;11.99;100.00
28167;BME280;15455;53.376;-6.262;2022-07-05T04:37:26;102140.00;;;11.99;100.00
28167;BME280;15455;53.376;-6.262;2022-07-05T04:40:13;102147.03;;;12.02;100.00
28167;BME280;15455;53.376;-6.262;2022-07-05T04:43:00;102152.28;;;12.04;100.00
28167;BME280;15455;53.376;-6.262;2022-07-05T04:45:46;102158.41;;;12.06;100.00
28167;BME280;15455;53.376;-6.262;2022-07-05T04:48:39;102160.16;;;12.07;100.00
28167;BME280;15455;53.376;-6.262;2022-07-05T04:51:27;102167.22;;;12.11;100.00
28167;BME280;15455;53.376;-6.262;2022-07-05T04:54:13;102170.72;;;12.13;100.00
28167;BME280;15455;53.376;-6.262;2022-07-05T04:56:58;102168.97;;;12.12;100.00
28167;BME280;15455;53.376;-6.262;2022-07-05T04:59:44;102175.13;;;12.15;100.00
28167;BME280;15455;53.376;-6.262;2022-07-05T05:02:31;102170.81;;;12.19;100.00
28167;BME280;15455;53.376;-6.262;2022-07-05T05:05:17;102176.06;;;12.21;100.00
28167;BME280;15455;53.376;-6.262;2022-07-05T05:08:02;102177.84;;;12.23;100.00
28167;BME280;15455;53.376;-6.262;2022-07-05T05:10:48;102186.63;;;12.28;100.00
28167;BME280;15455;53.376;-6.262;2022-07-05T05:13:33;102182.28;;;12.29;100.00
28167;BME280;15455;53.376;-6.262;2022-07-05T05:16:19;102188.44;;;12.32;100.00
28167;BME280;15455;53.376;-6.262;2022-07-05T05:19:05;102193.72;;;12.36;100.00
28167;BME280;15455;53.376;-6.262;2022-07-05T05:21:50;102201.63;;;12.40;100.00
28167;BME280;15455;53.376;-6.262;2022-07-05T05:24:36;102201.66;;;12.43;100.00
28167;BME280;15455;53.376;-6.262;2022-07-05T05:27:22;102201.69;;;12.46;100.00
28167;BME280;15455;53.376;-6.262;2022-07-05T05:30:08;102207.88;;;12.50;100.00
28167;BME280;15455;53.376;-6.262;2022-07-05T05:32:53;102214.06;;;12.55;100.00
28167;BME280;15455;53.376;-6.262;2022-07-05T05:35:39;102221.97;;;12.60;100.00
28167;BME280;15455;53.376;-6.262;2022-07-05T05:38:24;102223.78;;;12.64;100.00
28167;BME280;15455;53.376;-6.262;2022-07-05T05:41:10;102224.66;;;12.66;100.00
28167;BME280;15455;53.376;-6.262;2022-07-05T05:43:55;102230.84;;;12.71;100.00
28167;BME280;15455;53.376;-6.262;2022-07-05T05:46:41;102234.41;;;12.76;100.00
28167;BME280;15455;53.376;-6.262;2022-07-05T05:49:27;102235.34;;;12.80;100.00
28167;BME280;15455;53.376;-6.262;2022-07-05T05:52:12;102229.28;;;12.85;100.00
28167;BME280;15455;53.376;-6.262;2022-07-05T05:54:58;102231.97;;;12.92;100.00
28167;BME280;15455;53.376;-6.262;2022-07-05T05:57:43;102236.38;;;12.94;100.00
28167;BME280;15455;53.376;-6.262;2022-07-05T06:00:29;102237.28;;;12.98;100.00
28167;BME280;15455;53.376;-6.262;2022-07-05T06:03:15;102228.59;;;13.02;100.00
28167;BME280;15455;53.376;-6.262;2022-07-05T06:06:01;102241.75;;;13.07;100.00
28167;BME280;15455;53.376;-6.262;2022-07-05T06:08:46;102240.94;;;13.12;100.00
28167;BME280;15455;53.376;-6.262;2022-07-05T06:11:32;102239.22;;;13.14;100.00
28167;BME280;15455;53.376;-6.262;2022-07-05T06:14:18;102241.00;;;13.18;100.00
28167;BME280;15455;53.376;-6.262;2022-07-05T06:17:03;102248.94;;;13.23;100.00
28167;BME280;15455;53.376;-6.262;2022-07-05T06:19:49;102246.31;;;13.25;100.00
28167;BME280;15455;53.376;-6.262;2022-07-05T06:22:35;102250.75;;;13.32;100.00
28167;BME280;15455;53.376;-6.262;2022-07-05T06:25:20;102250.84;;;13.36;100.00
28167;BME280;15455;53.376;-6.262;2022-07-05T06:28:09;102253.47;;;13.36;100.00
28167;BME280;15455;53.376;-6.262;2022-07-05T06:30:54;102258.69;;;13.35;100.00
28167;BME280;15455;53.376;-6.262;2022-07-05T06:33:40;102256.09;;;13.38;100.00
28167;BME280;15455;53.376;-6.262;2022-07-05T06:36:26;102260.47;;;13.37;100.00
28167;BME280;15455;53.376;-6.262;2022-07-05T06:39:11;102263.97;;;13.38;100.00
28167;BME280;15455;53.376;-6.262;2022-07-05T06:41:57;102261.31;;;13.35;100.00
28167;BME280;15455;53.376;-6.262;2022-07-05T06:44:42;102263.06;;;13.36;100.00
28167;BME280;15455;53.376;-6.262;2022-07-05T06:47:28;102261.34;;;13.38;100.00
28167;BME280;15455;53.376;-6.262;2022-07-05T06:50:14;102263.94;;;13.35;100.00
28167;BME280;15455;53.376;-6.262;2022-07-05T06:53:00;102270.91;;;13.34;100.00
28167;BME280;15455;53.376;-6.262;2022-07-05T06:55:46;102259.56;;;13.37;100.00
28167;BME280;15455;53.376;-6.262;2022-07-05T06:58:40;102270.06;;;13.38;100.00
28167;BME280;15455;53.376;-6.262;2022-07-05T07:01:26;102271.00;;;13.42;100.00
28167;BME280;15455;53.376;-6.262;2022-07-05T07:04:12;102278.03;;;13.45;100.00
28167;BME280;15455;53.376;-6.262;2022-07-05T07:07:07;102278.09;;;13.52;100.00
28167;BME280;15455;53.376;-6.262;2022-07-05T07:10:12;102275.56;;;13.63;100.00
28167;BME280;15455;53.376;-6.262;2022-07-05T07:12:58;102279.16;;;13.75;100.00
28167;BME280;15455;53.376;-6.262;2022-07-05T07:15:44;102273.16;;;13.88;100.00
28167;BME280;15455;53.376;-6.262;2022-07-05T07:18:32;102268.84;;;13.96;100.00
28167;BME280;15455;53.376;-6.262;2022-07-05T07:21:27;102270.69;;;14.10;100.00
28167;BME280;15455;53.376;-6.262;2022-07-05T07:24:12;102264.69;;;14.21;100.00
28167;BME280;15455;53.376;-6.262;2022-07-05T07:26:57;102263.88;;;14.32;100.00
28167;BME280;15455;53.376;-6.262;2022-07-05T07:29:49;102268.31;;;14.44;100.00
28167;BME280;15455;53.376;-6.262;2022-07-05T07:32:35;102262.22;;;14.52;100.00
28167;BME280;15455;53.376;-6.262;2022-07-05T07:35:21;102264.97;;;14.63;100.00
28167;BME280;15455;53.376;-6.262;2022-07-05T07:38:06;102273.72;;;14.65;100.00
28167;BME280;15455;53.376;-6.262;2022-07-05T07:40:52;102276.34;;;14.64;100.00
28167;BME280;15455;53.376;-6.262;2022-07-05T07:43:37;102278.13;;;14.66;100.00
28167;BME280;15455;53.376;-6.262;2022-07-05T07:46:23;102275.50;;;14.66;100.00
28167;BME280;15455;53.376;-6.262;2022-07-05T07:49:09;102273.75;;;14.70;100.00
28167;BME280;15455;53.376;-6.262;2022-07-05T07:51:55;102282.56;;;14.87;100.00
28167;BME280;15455;53.376;-6.262;2022-07-05T07:54:40;102272.06;;;14.84;100.00
28167;BME280;15455;53.376;-6.262;2022-07-05T07:57:27;102280.84;;;14.91;100.00
28167;BME280;15455;53.376;-6.262;2022-07-05T08:00:13;102282.59;;;14.90;100.00
28167;BME280;15455;53.376;-6.262;2022-07-05T08:02:59;102287.91;;;14.97;100.00
28167;BME280;15455;53.376;-6.262;2022-07-05T08:05:44;102275.63;;;15.02;100.00
28167;BME280;15455;53.376;-6.262;2022-07-05T08:08:30;102282.66;;;15.06;100.00
28167;BME280;15455;53.376;-6.262;2022-07-05T08:11:15;102280.03;;;15.12;100.00
28167;BME280;15455;53.376;-6.262;2022-07-05T08:14:01;102276.53;;;15.10;100.00
28167;BME280;15455;53.376;-6.262;2022-07-05T08:16:47;102280.03;;;15.12;100.00
28167;BME280;15455;53.376;-6.262;2022-07-05T08:19:37;102287.06;;;15.11;100.00
28167;BME280;15455;53.376;-6.262;2022-07-05T08:22:41;102273.06;;;15.17;100.00
28167;BME280;15455;53.376;-6.262;2022-07-05T08:25:26;102295.00;;;15.35;100.00
28167;BME280;15455;53.376;-6.262;2022-07-05T08:28:12;102284.50;;;15.38;100.00
28167;BME280;15455;53.376;-6.262;2022-07-05T08:30:57;102282.78;;;15.43;100.00
28167;BME280;15455;53.376;-6.262;2022-07-05T08:33:43;102289.81;;;15.50;100.00
28167;BME280;15455;53.376;-6.262;2022-07-05T08:36:29;102282.78;;;15.48;100.00
28167;BME280;15455;53.376;-6.262;2022-07-05T08:39:16;102290.66;;;15.51;100.00
28167;BME280;15455;53.376;-6.262;2022-07-05T08:42:03;102295.03;;;15.44;100.00
28167;BME280;15455;53.376;-6.262;2022-07-05T08:44:55;102302.94;;;15.45;100.00
28167;BME280;15455;53.376;-6.262;2022-07-05T08:47:41;102298.56;;;15.52;100.00
28167;BME280;15455;53.376;-6.262;2022-07-05T08:50:28;102302.09;;;15.60;100.00
28167;BME280;15455;53.376;-6.262;2022-07-05T08:53:15;102317.88;;;15.56;100.00
28167;BME280;15455;53.376;-6.262;2022-07-05T08:56:01;102311.75;;;15.63;100.00
28167;BME280;15455;53.376;-6.262;2022-07-05T08:58:46;102310.00;;;15.62;100.00
28167;BME280;15455;53.376;-6.262;2022-07-05T09:01:33;102307.34;;;15.63;100.00
28167;BME280;15455;53.376;-6.262;2022-07-05T09:04:19;102310.84;;;15.66;100.00
28167;BME280;15455;53.376;-6.262;2022-07-05T09:07:07;102303.00;;;15.73;100.00
28167;BME280;15455;53.376;-6.262;2022-07-05T09:09:54;102317.94;;;15.85;100.00
28167;BME280;15455;53.376;-6.262;2022-07-05T09:12:41;102310.06;;;15.99;100.00
28167;BME280;15455;53.376;-6.262;2022-07-05T09:15:27;102306.53;;;16.15;100.00
28167;BME280;15455;53.376;-6.262;2022-07-05T09:18:13;102312.69;;;16.13;100.00
28167;BME280;15455;53.376;-6.262;2022-07-05T09:21:14;102321.44;;;16.30;100.00
28167;BME280;15455;53.376;-6.262;2022-07-05T09:24:03;102317.03;;;16.45;100.00
28167;BME280;15455;53.376;-6.262;2022-07-05T09:26:49;102316.94;;;16.82;100.00
28167;BME280;15455;53.376;-6.262;2022-07-05T09:29:34;102324.78;;;17.16;100.00
28167;BME280;15455;53.376;-6.262;2022-07-05T09:32:29;102320.34;;;17.21;100.00
28167;BME280;15455;53.376;-6.262;2022-07-05T09:35:19;102319.47;;;17.19;100.00
28167;BME280;15455;53.376;-6.262;2022-07-05T09:38:06;102317.72;;;17.19;100.00
28167;BME280;15455;53.376;-6.262;2022-07-05T09:41:01;102323.00;;;17.15;100.00
28167;BME280;15455;53.376;-6.262;2022-07-05T09:43:47;102325.63;;;17.16;100.00
28167;BME280;15455;53.376;-6.262;2022-07-05T09:46:32;102327.28;;;17.36;100.00
28167;BME280;15455;53.376;-6.262;2022-07-05T09:49:25;102331.53;;;17.62;100.00
28167;BME280;15455;53.376;-6.262;2022-07-05T09:52:28;102323.72;;;17.43;100.00
28167;BME280;15455;53.376;-6.262;2022-07-05T09:55:16;102324.66;;;17.38;100.00
28167;BME280;15455;53.376;-6.262;2022-07-05T09:58:04;102329.13;;;17.20;100.00
28167;BME280;15455;53.376;-6.262;2022-07-05T10:00:49;102337.13;;;16.95;100.00
28167;BME280;15455;53.376;-6.262;2022-07-05T10:03:53;102340.69;;;16.82;100.00
28167;BME280;15455;53.376;-6.262;2022-07-05T10:06:40;102345.94;;;16.82;100.00
28167;BME280;15455;53.376;-6.262;2022-07-05T10:09:26;102339.88;;;16.60;100.00
28167;BME280;15455;53.376;-6.262;2022-07-05T10:12:12;102341.63;;;16.55;100.00
28167;BME280;15455;53.376;-6.262;2022-07-05T10:14:59;102344.25;;;16.50;100.00
28167;BME280;15455;53.376;-6.262;2022-07-05T10:17:53;102341.63;;;16.52;100.00
28167;BME280;15455;53.376;-6.262;2022-07-05T10:20:44;102349.56;;;16.31;100.00
28167;BME280;15455;53.376;-6.262;2022-07-05T10:23:30;102340.78;;;16.29;100.00
28167;BME280;15455;53.376;-6.262;2022-07-05T10:26:17;102346.91;;;16.39;100.00
28167;BME280;15455;53.376;-6.262;2022-07-05T10:29:03;102342.50;;;16.50;100.00
28167;BME280;15455;53.376;-6.262;2022-07-05T10:31:48;102345.13;;;16.54;100.00
28167;BME280;15455;53.376;-6.262;2022-07-05T10:34:35;102331.97;;;16.49;100.00
28167;BME280;15455;53.376;-6.262;2022-07-05T10:37:41;102343.34;;;16.74;100.00
28167;BME280;15455;53.376;-6.262;2022-07-05T10:40:28;102341.59;;;16.72;100.00
28167;BME280;15455;53.376;-6.262;2022-07-05T10:43:21;102353.88;;;16.76;100.00
28167;BME280;15455;53.376;-6.262;2022-07-05T10:46:07;102351.22;;;16.82;100.00
28167;BME280;15455;53.376;-6.262;2022-07-05T10:49:18;102357.38;;;16.86;100.00
28167;BME280;15455;53.376;-6.262;2022-07-05T10:52:21;102357.34;;;17.02;100.00
28167;BME280;15455;53.376;-6.262;2022-07-05T10:55:18;102359.97;;;17.09;100.00
28167;BME280;15455;53.376;-6.262;2022-07-05T11:06:47;102358.16;;;17.20;100.00
28167;BME280;15455;53.376;-6.262;2022-07-05T11:09:34;102358.09;;;17.32;100.00
28167;BME280;15455;53.376;-6.262;2022-07-05T11:12:20;102357.22;;;17.36;100.00
28167;BME280;15455;53.376;-6.262;2022-07-05T11:15:13;102365.06;;;17.53;100.00
28167;BME280;15455;53.376;-6.262;2022-07-05T11:18:14;102364.13;;;17.61;100.00
28167;BME280;15455;53.376;-6.262;2022-07-05T11:21:20;102370.16;;;17.80;100.00
28167;BME280;15455;53.376;-6.262;2022-07-05T11:24:21;102358.72;;;17.82;100.00
28167;BME280;15455;53.376;-6.262;2022-07-05T11:27:11;102371.03;;;17.79;100.00
28167;BME280;15455;53.376;-6.262;2022-07-05T11:29:57;102365.72;;;17.85;100.00
28167;BME280;15455;53.376;-6.262;2022-07-05T11:32:43;102378.00;;;17.98;100.00
28167;BME280;15455;53.376;-6.262;2022-07-05T11:35:31;102375.38;;;17.89;100.00
28167;BME280;15455;53.376;-6.262;2022-07-05T11:38:18;102382.34;;;18.07;100.00
28167;BME280;15455;53.376;-6.262;2022-07-05T11:41:15;102384.97;;;18.09;99.73
28167;BME280;15455;53.376;-6.262;2022-07-05T11:44:01;102393.78;;;18.08;100.00
28167;BME280;15455;53.376;-6.262;2022-07-05T11:46:47;102387.69;;;17.96;100.00
28167;BME280;15455;53.376;-6.262;2022-07-05T11:49:34;102378.91;;;17.93;100.00
28167;BME280;15455;53.376;-6.262;2022-07-05T11:52:25;102380.66;;;17.89;100.00
28167;BME280;15455;53.376;-6.262;2022-07-05T11:55:11;102385.94;;;17.98;100.00
28167;BME280;15455;53.376;-6.262;2022-07-05T11:57:58;102385.78;;;18.14;100.00
28167;BME280;15455;53.376;-6.262;2022-07-05T12:00:44;102383.06;;;18.25;100.00
28167;BME280;15455;53.376;-6.262;2022-07-05T12:03:29;102384.94;;;18.13;100.00
28167;BME280;15455;53.376;-6.262;2022-07-05T12:06:15;102384.06;;;18.10;100.00
28167;BME280;15455;53.376;-6.262;2022-07-05T12:09:04;102381.41;;;18.10;100.00
28167;BME280;15455;53.376;-6.262;2022-07-05T12:11:51;102391.06;;;18.15;100.00
28167;BME280;15455;53.376;-6.262;2022-07-05T12:14:56;102402.47;;;18.23;100.00
28167;BME280;15455;53.376;-6.262;2022-07-05T12:17:45;102405.19;;;18.14;99.86
28167;BME280;15455;53.376;-6.262;2022-07-05T12:20:34;102396.31;;;18.21;100.00
28167;BME280;15455;53.376;-6.262;2022-07-05T12:23:26;102400.69;;;18.22;99.56
28167;BME280;15455;53.376;-6.262;2022-07-05T12:26:13;102401.53;;;18.28;99.79
28167;BME280;15455;53.376;-6.262;2022-07-05T12:28:58;102405.72;;;18.55;99.12
28167;BME280;15455;53.376;-6.262;2022-07-05T12:32:04;102403.31;;;18.24;97.86
28167;BME280;15455;53.376;-6.262;2022-07-05T12:34:51;102407.59;;;18.44;98.00
28167;BME280;15455;53.376;-6.262;2022-07-05T12:37:36;102404.53;;;18.85;96.94
28167;BME280;15455;53.376;-6.262;2022-07-05T12:40:23;102404.03;;;19.33;92.87
28167;BME280;15455;53.376;-6.262;2022-07-05T12:43:14;102416.84;;;19.64;89.66
28167;BME280;15455;53.376;-6.262;2022-07-05T12:46:07;102413.16;;;19.79;88.67
28167;BME280;15455;53.376;-6.262;2022-07-05T12:48:54;102413.13;;;19.82;87.88
28167;BME280;15455;53.376;-6.262;2022-07-05T12:51:41;102403.88;;;19.46;87.51
28167;BME280;15455;53.376;-6.262;2022-07-05T12:54:27;102409.50;;;19.18;88.22
28167;BME280;15455;53.376;-6.262;2022-07-05T12:57:31;102408.00;;;18.95;90.15
28167;BME280;15455;53.376;-6.262;2022-07-05T13:00:35;102401.78;;;18.98;92.11
28167;BME280;15455;53.376;-6.262;2022-07-05T13:03:21;102404.16;;;19.24;91.54
28167;BME280;15455;53.376;-6.262;2022-07-05T13:06:06;102412.56;;;19.55;90.13
28167;BME280;15455;53.376;-6.262;2022-07-05T13:08:58;102420.97;;;19.88;90.33
28167;BME280;15455;53.376;-6.262;2022-07-05T13:11:44;102413.00;;;19.88;87.26
28167;BME280;15455;53.376;-6.262;2022-07-05T13:14:29;102411.91;;;20.03;86.91
28167;BME280;15455;53.376;-6.262;2022-07-05T13:17:16;102415.31;;;20.11;85.06
28167;BME280;15455;53.376;-6.262;2022-07-05T13:20:03;102417.16;;;20.08;85.19
28167;BME280;15455;53.376;-6.262;2022-07-05T13:22:49;102430.59;;;19.94;84.32
28167;BME280;15455;53.376;-6.262;2022-07-05T13:25:35;102420.03;;;19.92;82.73
28167;BME280;15455;53.376;-6.262;2022-07-05T13:28:21;102416.38;;;20.00;84.95
28167;BME280;15455;53.376;-6.262;2022-07-05T13:31:06;102435.06;;;19.89;82.71
28167;BME280;15455;53.376;-6.262;2022-07-05T13:33:51;102419.53;;;19.63;84.62
28167;BME280;15455;53.376;-6.262;2022-07-05T13:36:37;102415.84;;;19.73;85.77
28167;BME280;15455;53.376;-6.262;2022-07-05T13:39:23;102427.25;;;19.78;82.07
28167;BME280;15455;53.376;-6.262;2022-07-05T13:42:14;102433.09;;;20.03;83.55
28167;BME280;15455;53.376;-6.262;2022-07-05T13:44:59;102425.91;;;20.11;83.25
28167;BME280;15455;53.376;-6.262;2022-07-05T13:47:44;102430.53;;;19.99;81.31
28167;BME280;15455;53.376;-6.262;2022-07-05T13:50:30;102420.66;;;20.08;82.54
28167;BME280;15455;53.376;-6.262;2022-07-05T13:53:18;102425.03;;;20.12;82.01
28167;BME280;15455;53.376;-6.262;2022-07-05T13:56:05;102428.44;;;20.19;82.38
28167;BME280;15455;53.376;-6.262;2022-07-05T13:58:52;102432.81;;;20.22;80.14
28167;BME280;15455;53.376;-6.262;2022-07-05T14:01:37;102418.44;;;20.38;81.95
28167;BME280;15455;53.376;-6.262;2022-07-05T14:04:23;102420.47;;;20.74;78.87
28167;BME280;15455;53.376;-6.262;2022-07-05T14:07:10;102415.75;;;21.35;77.83
28167;BME280;15455;53.376;-6.262;2022-07-05T14:09:55;102411.31;;;21.36;75.29
28167;BME280;15455;53.376;-6.262;2022-07-05T14:12:41;102415.34;;;21.57;74.76
28167;BME280;15455;53.376;-6.262;2022-07-05T14:15:27;102413.72;;;21.89;73.84
28167;BME280;15455;53.376;-6.262;2022-07-05T14:18:13;102419.00;;;21.90;70.81
28167;BME280;15455;53.376;-6.262;2022-07-05T14:20:58;102419.19;;;21.81;72.04
28167;BME280;15455;53.376;-6.262;2022-07-05T14:23:44;102416.66;;;21.76;73.24